Time;durP1;ratioP1;P1;durP2;ratioP2;P2;SDS_P1;SDS_P2;PMS_P1;PMS_P2;Temp;Humidity;BMP_temperature;BMP_pressure;BME280_temperature;BME280_humidity;BME280_pressure;Samples;Min_cycle;Max_cycle;Signal;HPM_P1;HPM_P2
2021/01/18 00:03:27;;;;;;;6.22;4.20;;;1.30;99.90;;;;;;8328635;28;20032;-71
2021/01/18 00:07:28;;;;;;;7.28;4.80;;;1.40;99.90;;;;;;8361777;28;20022;-72
2021/01/18 00:11:28;;;;;;;9.40;5.88;;;1.30;99.90;;;;;;8332035;28;20488;-72
2021/01/18 00:15:29;;;;;;;8.73;5.35;;;1.10;99.90;;;;;;8362430;28;20490;-72
2021/01/18 00:19:29;;;;;;;8.48;5.13;;;1.20;99.90;;;;;;8362473;28;20029;-72
2021/01/18 00:23:30;;;;;;;8.48;5.72;;;1.30;99.90;;;;;;8360969;28;20039;-72
2021/01/18 00:27:30;;;;;;;7.85;5.30;;;1.20;99.90;;;;;;8362127;28;20061;-72
2021/01/18 00:31:31;;;;;;;6.70;4.45;;;1.30;99.90;;;;;;8361483;28;20091;-72
2021/01/18 00:35:32;;;;;;;10.52;5.13;;;1.40;99.90;;;;;;8362152;28;20399;-72
2021/01/18 00:39:32;;;;;;;9.30;5.20;;;1.20;99.90;;;;;;8361929;28;20379;-72
2021/01/18 00:43:33;;;;;;;6.85;3.63;;;1.20;99.90;;;;;;8342000;28;20022;-72
2021/01/18 00:47:45;;;;;;;5.72;3.90;;;1.20;99.90;;;;;;8327537;28;20026;-72
2021/01/18 00:51:46;;;;;;;7.57;4.13;;;1.30;99.90;;;;;;8328613;28;20388;-74
2021/01/18 00:55:46;;;;;;;6.88;4.30;;;1.20;99.90;;;;;;8328922;28;20028;-75
2021/01/18 00:59:47;;;;;;;5.85;3.80;;;1.30;99.90;;;;;;8327962;28;20052;-72
2021/01/18 01:03:48;;;;;;;7.88;4.53;;;1.10;99.90;;;;;;8326500;28;20025;-72
2021/01/18 01:07:59;;;;;;;8.13;5.03;;;1.20;99.90;;;;;;8328234;28;20025;-72
2021/01/18 01:11:59;;;;;;;6.60;3.95;;;1.20;99.90;;;;;;8340551;28;20702;-72
2021/01/18 01:16:00;;;;;;;7.20;4.35;;;1.10;99.90;;;;;;8393094;28;20036;-72
2021/01/18 01:20:02;;;;;;;7.05;4.35;;;1.00;99.90;;;;;;8391889;28;20237;-72
2021/01/18 01:24:04;;;;;;;8.15;4.60;;;1.20;99.90;;;;;;8390652;28;20021;-72
2021/01/18 01:28:04;;;;;;;6.70;4.32;;;1.20;99.90;;;;;;8391546;28;20082;-72
2021/01/18 01:32:05;;;;;;;8.60;4.93;;;1.20;99.90;;;;;;8389936;28;20024;-71
2021/01/18 01:36:06;;;;;;;3.95;2.17;;;1.10;99.90;;;;;;8391144;28;20059;-72
2021/01/18 01:40:10;;;;;;;6.97;3.90;;;1.20;99.90;;;;;;8391611;28;20026;-72
2021/01/18 01:44:10;;;;;;;8.98;3.83;;;1.00;99.90;;;;;;8368583;28;20025;-71
2021/01/18 01:48:11;;;;;;;7.97;4.68;;;1.00;99.90;;;;;;8359845;28;20017;-72
2021/01/18 01:52:12;;;;;;;5.03;3.47;;;1.10;99.90;;;;;;8359595;28;20029;-72
2021/01/18 01:56:13;;;;;;;8.60;4.50;;;1.20;99.90;;;;;;8359583;28;20017;-72
2021/01/18 02:00:15;;;;;;;5.35;3.45;;;1.20;99.90;;;;;;8359420;28;20437;-72
2021/01/18 02:04:17;;;;;;;6.20;3.13;;;1.20;99.90;;;;;;8357980;28;20024;-71
2021/01/18 02:08:17;;;;;;;2.42;1.65;;;1.30;99.90;;;;;;8358356;28;20021;-71
2021/01/18 02:12:18;;;;;;;9.40;5.38;;;1.30;99.90;;;;;;8349200;28;20488;-72
2021/01/18 02:16:41;;;;;;;7.97;3.88;;;1.20;99.90;;;;;;8325366;28;20109;-72
2021/01/18 02:21:00;;;;;;;9.77;5.72;;;1.30;99.90;;;;;;8326432;28;20017;-74
2021/01/18 02:25:29;;;;;;;9.35;5.18;;;1.30;99.90;;;;;;8324774;28;20029;-74
2021/01/18 02:30:07;;;;;;;8.00;5.25;;;1.30;99.90;;;;;;8320680;28;20495;-74
2021/01/18 02:34:38;;;;;;;10.15;5.38;;;1.30;99.90;;;;;;8306309;28;20037;-74
2021/01/18 02:39:03;;;;;;;7.93;5.40;;;1.30;99.90;;;;;;8325272;28;20399;-74
2021/01/18 02:43:10;;;;;;;9.68;5.15;;;1.30;99.90;;;;;;8356020;28;20022;-73
2021/01/18 02:47:13;;;;;;;9.15;5.00;;;1.40;99.90;;;;;;8325141;28;20095;-74
2021/01/18 02:51:17;;;;;;;7.88;4.72;;;1.20;99.90;;;;;;8325693;28;20458;-74
2021/01/18 02:55:18;;;;;;;9.45;5.13;;;1.30;99.90;;;;;;8357860;28;20089;-74
2021/01/18 02:59:19;;;;;;;4.38;2.75;;;1.30;99.90;;;;;;8325663;28;20026;-74
2021/01/18 03:03:55;;;;;;;3.58;2.50;;;1.30;99.90;;;;;;8325445;28;20547;-73
2021/01/18 03:07:59;;;;;;;6.50;2.47;;;1.30;99.90;;;;;;8322547;28;20794;-75
2021/01/18 03:12:05;;;;;;;9.95;5.40;;;1.30;99.90;;;;;;8331466;28;20029;-74
2021/01/18 03:16:21;;;;;;;7.60;4.53;;;1.30;99.90;;;;;;8358516;28;20561;-74
2021/01/18 03:20:22;;;;;;;9.98;4.60;;;1.20;99.90;;;;;;8358154;28;20114;-74
2021/01/18 03:24:23;;;;;;;8.23;4.90;;;1.30;99.90;;;;;;8357891;28;20074;-72
2021/01/18 03:28:24;;;;;;;11.10;6.07;;;1.30;99.90;;;;;;8364191;28;20086;-72
2021/01/18 03:32:25;;;;;;;6.15;3.65;;;1.30;99.90;;;;;;8364067;28;20029;-71
2021/01/18 03:36:25;;;;;;;7.22;4.07;;;1.20;99.90;;;;;;8363981;28;20078;-72
2021/01/18 03:40:27;;;;;;;9.38;5.07;;;1.20;99.90;;;;;;8396207;28;20044;-72
2021/01/18 03:44:27;;;;;;;10.13;6.80;;;1.20;99.90;;;;;;8337978;28;20026;-69
2021/01/18 03:48:28;;;;;;;12.23;6.63;;;1.20;99.90;;;;;;8329136;28;20064;-71
2021/01/18 03:52:28;;;;;;;12.55;6.82;;;1.10;99.90;;;;;;8328780;28;20021;-69
2021/01/18 03:56:29;;;;;;;9.48;5.85;;;1.10;99.90;;;;;;8328790;28;20029;-70
2021/01/18 04:00:31;;;;;;;12.10;6.85;;;1.10;99.90;;;;;;8362231;28;20057;-70
2021/01/18 04:04:32;;;;;;;11.75;6.50;;;1.10;99.90;;;;;;8328902;28;20022;-70
2021/01/18 04:08:32;;;;;;;12.15;7.10;;;1.10;99.90;;;;;;8330224;28;20030;-70
2021/01/18 04:12:33;;;;;;;13.63;6.25;;;1.20;99.90;;;;;;8338879;28;20434;-70
2021/01/18 04:16:40;;;;;;;13.07;7.57;;;1.20;99.90;;;;;;8362582;28;20041;-69
2021/01/18 04:20:41;;;;;;;12.93;7.07;;;1.10;99.90;;;;;;8362268;28;20021;-69
2021/01/18 04:24:41;;;;;;;14.07;7.93;;;1.10;99.90;;;;;;8362726;28;20495;-69
2021/01/18 04:28:42;;;;;;;10.73;5.18;;;1.00;99.90;;;;;;8360920;28;20066;-69
2021/01/18 04:32:42;;;;;;;15.55;7.75;;;1.10;99.90;;;;;;8361591;28;20083;-69
2021/01/18 04:36:43;;;;;;;14.82;8.45;;;1.00;99.90;;;;;;8370982;28;20052;-69
2021/01/18 04:40:44;;;;;;;11.18;6.75;;;1.00;99.90;;;;;;8377963;28;20021;-70
2021/01/18 04:44:45;;;;;;;14.32;7.43;;;1.00;99.90;;;;;;8378388;28;20415;-69
2021/01/18 04:48:45;;;;;;;13.23;7.43;;;1.10;99.90;;;;;;8360143;28;20051;-69
2021/01/18 04:52:56;;;;;;;12.15;7.15;;;1.10;99.90;;;;;;8361678;28;20033;-69
2021/01/18 04:57:20;;;;;;;13.52;7.07;;;1.20;99.90;;;;;;8360917;28;20021;-70
2021/01/18 05:01:28;;;;;;;11.77;7.72;;;1.20;99.90;;;;;;8361070;28;20524;-69
2021/01/18 05:05:30;;;;;;;14.48;7.78;;;1.10;99.90;;;;;;8361226;28;20017;-70
2021/01/18 05:09:41;;;;;;;10.85;7.05;;;1.10;99.90;;;;;;8360198;28;20037;-70
2021/01/18 05:13:45;;;;;;;11.25;7.70;;;1.10;99.90;;;;;;8373518;28;20033;-70
2021/01/18 05:17:47;;;;;;;12.07;7.85;;;1.10;99.90;;;;;;8359308;28;20488;-69
2021/01/18 05:21:48;;;;;;;14.07;7.68;;;1.10;99.90;;;;;;8358192;28;20557;-71
2021/01/18 05:25:48;;;;;;;16.48;7.60;;;1.10;99.90;;;;;;8359389;28;20029;-69
2021/01/18 05:29:56;;;;;;;12.52;7.00;;;1.00;99.90;;;;;;8358678;28;20025;-70
2021/01/18 05:34:01;;;;;;;13.38;7.25;;;1.00;99.90;;;;;;8358008;28;20033;-69
2021/01/18 05:38:11;;;;;;;11.38;6.70;;;1.00;99.90;;;;;;8359384;28;20047;-69
2021/01/18 05:42:22;;;;;;;10.45;6.20;;;1.00;99.90;;;;;;8351140;28;20512;-68
2021/01/18 05:46:23;;;;;;;12.77;6.80;;;1.00;99.90;;;;;;8324345;28;20024;-71
2021/01/18 05:50:25;;;;;;;6.47;4.03;;;1.00;99.90;;;;;;8322091;28;20022;-69
2021/01/18 05:54:26;;;;;;;13.40;7.28;;;1.10;99.90;;;;;;8323920;28;20159;-69
2021/01/18 05:58:30;;;;;;;17.23;7.00;;;1.00;99.90;;;;;;8325079;28;20388;-69
2021/01/18 06:02:31;;;;;;;11.57;6.60;;;1.00;99.90;;;;;;8323421;28;20030;-68
2021/01/18 06:06:34;;;;;;;12.15;6.07;;;1.00;99.90;;;;;;8325089;28;20048;-69
2021/01/18 06:10:35;;;;;;;11.93;6.10;;;1.10;99.90;;;;;;8356533;28;20017;-68
2021/01/18 06:14:35;;;;;;;13.45;6.65;;;1.00;99.90;;;;;;8354155;28;20025;-69
2021/01/18 06:18:38;;;;;;;14.35;6.90;;;1.10;99.90;;;;;;8358781;28;20476;-69
2021/01/18 06:22:38;;;;;;;16.60;6.97;;;1.20;99.90;;;;;;8357519;28;20025;-68
2021/01/18 06:26:39;;;;;;;16.30;8.18;;;1.20;99.90;;;;;;8358464;28;20022;-70
2021/01/18 06:30:40;;;;;;;13.50;7.07;;;1.30;99.90;;;;;;8358121;28;20435;-70
2021/01/18 06:34:40;;;;;;;13.30;7.40;;;1.20;99.90;;;;;;8357869;28;20071;-69
2021/01/18 06:38:43;;;;;;;13.35;6.75;;;1.20;99.90;;;;;;8358519;28;20407;-71
2021/01/18 06:42:51;;;;;;;14.32;6.55;;;1.20;99.90;;;;;;8357320;28;20021;-72
2021/01/18 06:46:51;;;;;;;13.20;5.95;;;1.20;99.90;;;;;;8357812;28;20375;-71
2021/01/18 06:50:58;;;;;;;11.48;6.40;;;1.20;99.90;;;;;;8357663;28;20025;-72
2021/01/18 06:54:59;;;;;;;9.50;5.57;;;1.20;99.90;;;;;;8356032;28;20033;-72
2021/01/18 06:59:27;;;;;;;13.82;7.05;;;1.30;99.90;;;;;;8357517;28;20033;-73
2021/01/18 07:03:41;;;;;;;12.05;6.45;;;1.10;99.90;;;;;;8363174;28;20021;-72
2021/01/18 07:07:55;;;;;;;13.55;6.88;;;1.20;99.90;;;;;;8364277;28;20025;-73
2021/01/18 07:12:03;;;;;;;14.18;6.72;;;1.20;99.90;;;;;;8354679;28;20527;-73
2021/01/18 07:16:11;;;;;;;13.55;6.38;;;1.20;99.90;;;;;;8363063;28;20720;-73
2021/01/18 07:20:24;;;;;;;8.00;4.53;;;1.30;99.90;;;;;;8346636;28;20052;-75
2021/01/18 07:24:30;;;;;;;11.48;6.25;;;1.30;99.90;;;;;;8362935;28;20021;-75
2021/01/18 07:28:33;;;;;;;12.57;5.53;;;1.40;99.90;;;;;;8363865;28;20044;-75
2021/01/18 07:32:33;;;;;;;9.93;4.60;;;1.30;99.90;;;;;;8358957;28;20372;-75
2021/01/18 07:36:34;;;;;;;7.63;4.80;;;1.40;99.90;;;;;;8361886;28;20033;-74
2021/01/18 07:40:34;;;;;;;11.77;6.47;;;1.50;99.90;;;;;;8363518;28;20017;-74
2021/01/18 07:44:37;;;;;;;14.82;7.15;;;1.40;99.90;;;;;;8336130;28;20025;-72
2021/01/18 07:48:37;;;;;;;12.07;5.93;;;1.60;99.90;;;;;;8335046;28;20033;-71
2021/01/18 07:52:39;;;;;;;10.38;5.82;;;1.70;99.90;;;;;;8360251;28;20028;-72
2021/01/18 07:56:40;;;;;;;13.65;6.00;;;1.70;99.90;;;;;;8362391;28;20036;-72
2021/01/18 08:00:41;;;;;;;11.10;6.00;;;1.70;99.90;;;;;;8355350;28;20036;-72
2021/01/18 08:04:42;;;;;;;15.95;7.47;;;1.80;99.90;;;;;;8359983;28;20029;-72
2021/01/18 08:08:42;;;;;;;16.25;8.65;;;1.80;99.90;;;;;;8362381;28;20035;-72
2021/01/18 08:12:43;;;;;;;26.83;14.23;;;1.80;99.90;;;;;;8357350;28;20051;-72
2021/01/18 08:16:44;;;;;;;20.60;9.68;;;1.80;99.90;;;;;;8360598;28;20029;-72
2021/01/18 08:20:44;;;;;;;13.23;5.55;;;1.80;99.90;;;;;;8360017;28;20032;-73
2021/01/18 08:24:50;;;;;;;10.77;5.75;;;1.80;99.90;;;;;;8360390;28;20027;-72
2021/01/18 08:28:51;;;;;;;10.15;5.35;;;1.90;99.90;;;;;;8361079;28;20053;-73
2021/01/18 08:33:04;;;;;;;11.73;6.85;;;1.90;99.90;;;;;;8355412;28;20025;-73
2021/01/18 08:37:07;;;;;;;12.32;7.18;;;2.10;99.90;;;;;;8360348;28;20088;-72
2021/01/18 08:41:12;;;;;;;14.75;7.88;;;2.10;99.90;;;;;;8361081;28;20032;-73
2021/01/18 08:45:28;;;;;;;10.75;6.90;;;2.30;99.90;;;;;;8356173;28;20048;-73
2021/01/18 08:49:32;;;;;;;11.23;5.65;;;2.30;99.90;;;;;;8357703;28;20449;-72
2021/01/18 08:53:46;;;;;;;11.75;6.00;;;2.30;99.90;;;;;;8359004;28;20025;-72
2021/01/18 08:57:52;;;;;;;11.02;5.78;;;2.40;99.90;;;;;;8358838;28;20029;-72
2021/01/18 09:01:57;;;;;;;10.77;6.25;;;2.60;99.90;;;;;;8359446;28;20024;-72
2021/01/18 09:05:59;;;;;;;13.27;6.22;;;2.60;99.90;;;;;;8359393;28;20017;-72
2021/01/18 09:09:59;;;;;;;18.20;6.07;;;2.70;99.90;;;;;;8359111;28;20635;-72
2021/01/18 09:14:01;;;;;;;10.88;6.30;;;2.90;99.90;;;;;;8358170;28;20123;-72
2021/01/18 09:18:10;;;;;;;7.32;4.13;;;3.00;99.90;;;;;;8360350;28;20090;-73
2021/01/18 09:22:11;;;;;;;9.60;4.97;;;3.40;99.90;;;;;;8351992;28;20611;-73
2021/01/18 09:26:15;;;;;;;8.93;5.13;;;3.50;99.90;;;;;;8352399;28;20022;-72
2021/01/18 09:30:19;;;;;;;10.00;4.97;;;3.80;99.90;;;;;;8357834;28;20028;-72
2021/01/18 09:34:19;;;;;;;9.18;5.18;;;4.10;99.90;;;;;;8352490;28;20095;-72
2021/01/18 09:38:20;;;;;;;10.02;4.90;;;4.00;99.90;;;;;;8353068;28;20113;-71
2021/01/18 09:42:22;;;;;;;10.80;4.18;;;3.90;99.90;;;;;;8354481;28;20036;-71
2021/01/18 09:46:23;;;;;;;8.32;4.38;;;3.80;99.90;;;;;;8357393;28;20067;-72
2021/01/18 09:50:25;;;;;;;10.32;4.75;;;3.60;99.90;;;;;;8357305;28;20125;-72
2021/01/18 09:54:25;;;;;;;7.13;4.30;;;3.50;99.90;;;;;;8356576;28;20033;-72
2021/01/18 09:58:37;;;;;;;9.50;4.55;;;3.50;99.90;;;;;;8357551;28;20123;-72
2021/01/18 10:02:49;;;;;;;6.20;4.30;;;3.40;99.90;;;;;;8357087;28;20025;-72
2021/01/18 10:06:50;;;;;;;5.63;3.40;;;3.60;99.90;;;;;;8356855;28;20024;-72
2021/01/18 10:10:51;;;;;;;9.05;3.95;;;3.40;99.90;;;;;;8358287;28;20025;-72
2021/01/18 10:14:53;;;;;;;7.10;3.88;;;3.70;99.90;;;;;;8339869;28;20445;-72
2021/01/18 10:18:53;;;;;;;9.77;4.30;;;3.60;99.90;;;;;;8357114;28;20032;-72
2021/01/18 10:22:56;;;;;;;10.60;4.53;;;3.40;99.90;;;;;;8357437;28;20021;-72
2021/01/18 10:27:09;;;;;;;4.65;2.25;;;3.40;99.90;;;;;;8357610;28;20423;-72
2021/01/18 10:31:20;;;;;;;7.95;4.10;;;3.30;99.90;;;;;;8353985;28;20589;-73
2021/01/18 10:35:31;;;;;;;13.23;4.30;;;3.50;99.90;;;;;;8385486;28;20060;-71
2021/01/18 10:39:37;;;;;;;6.38;4.15;;;3.70;99.90;;;;;;8354435;28;20029;-72
2021/01/18 10:43:38;;;;;;;5.15;3.33;;;3.70;99.90;;;;;;8356426;28;20406;-72
2021/01/18 10:47:39;;;;;;;7.68;4.15;;;3.70;99.90;;;;;;8354862;28;20025;-72
2021/01/18 10:51:39;;;;;;;7.93;3.92;;;3.80;99.90;;;;;;8356116;28;20037;-72
2021/01/18 10:55:40;;;;;;;8.98;4.30;;;3.70;99.90;;;;;;8356350;28;20067;-72
2021/01/18 10:59:41;;;;;;;116.28;36.60;;;3.90;99.90;;;;;;8350871;28;20036;-72
2021/01/18 11:03:42;;;;;;;202.05;60.58;;;4.20;99.90;;;;;;8355492;28;20024;-73
2021/01/18 11:07:46;;;;;;;13.98;6.75;;;4.30;99.90;;;;;;8356939;28;20501;-72
2021/01/18 11:11:48;;;;;;;30.75;10.60;;;4.40;99.90;;;;;;8356706;28;20475;-72
2021/01/18 11:15:48;;;;;;;7.93;5.13;;;4.40;99.90;;;;;;8357770;28;20035;-73
2021/01/18 11:19:50;;;;;;;10.38;7.00;;;4.40;99.90;;;;;;8357085;28;20021;-73
2021/01/18 11:23:50;;;;;;;7.38;3.63;;;4.60;99.90;;;;;;8352018;28;20650;-72
2021/01/18 11:27:51;;;;;;;9.30;4.43;;;4.50;99.90;;;;;;8349154;28;20032;-72
2021/01/18 11:31:52;;;;;;;6.05;4.32;;;4.10;99.90;;;;;;8355016;28;20021;-72
2021/01/18 11:35:53;;;;;;;8.50;4.95;;;4.30;99.90;;;;;;8353088;28;20087;-73
2021/01/18 11:39:53;;;;;;;6.82;4.68;;;4.20;99.90;;;;;;8353969;28;20483;-71
2021/01/18 11:43:54;;;;;;;7.78;4.63;;;4.00;99.90;;;;;;8356385;28;20139;-73
2021/01/18 11:47:55;;;;;;;5.97;3.88;;;3.90;99.90;;;;;;8351773;28;20055;-73
2021/01/18 11:51:57;;;;;;;10.57;5.63;;;3.90;99.90;;;;;;8360766;28;20100;-73
2021/01/18 11:55:58;;;;;;;10.40;4.97;;;4.00;99.90;;;;;;8362700;28;20024;-72
2021/01/18 11:59:58;;;;;;;10.18;5.57;;;4.30;99.90;;;;;;8362409;28;20372;-72
2021/01/18 12:04:00;;;;;;;7.00;3.95;;;4.00;99.90;;;;;;8361156;28;20033;-73
2021/01/18 12:08:02;;;;;;;8.77;4.78;;;4.00;99.90;;;;;;8360819;28;20025;-73
2021/01/18 12:12:03;;;;;;;5.05;3.20;;;3.90;99.90;;;;;;8359978;28;20036;-72
2021/01/18 12:16:04;;;;;;;11.65;5.50;;;3.70;99.90;;;;;;8361731;28;20071;-72
2021/01/18 12:20:06;;;;;;;9.60;4.50;;;3.60;99.90;;;;;;8362383;28;20064;-72
2021/01/18 12:24:07;;;;;;;9.57;5.30;;;3.70;99.90;;;;;;8362486;28;20066;-72
2021/01/18 12:28:07;;;;;;;5.32;3.15;;;3.70;99.90;;;;;;8361974;28;20483;-72
2021/01/18 12:32:08;;;;;;;9.13;5.18;;;3.50;99.90;;;;;;8359687;28;20103;-72
2021/01/18 12:36:10;;;;;;;13.25;6.45;;;3.40;99.90;;;;;;8360305;28;20040;-72
2021/01/18 12:40:12;;;;;;;11.48;6.18;;;3.40;99.90;;;;;;8359461;28;20489;-72
2021/01/18 12:44:13;;;;;;;8.98;4.85;;;3.40;99.90;;;;;;8361151;28;20017;-72
2021/01/18 12:48:14;;;;;;;10.25;5.45;;;3.50;99.90;;;;;;8360584;28;20116;-72
2021/01/18 12:52:14;;;;;;;15.80;6.75;;;3.60;99.90;;;;;;8360997;28;20025;-72
2021/01/18 12:56:28;;;;;;;7.72;3.97;;;3.80;99.90;;;;;;8361230;28;20051;-72
2021/01/18 13:00:28;;;;;;;12.32;5.97;;;3.50;99.90;;;;;;8360435;28;20055;-72
2021/01/18 13:04:29;;;;;;;24.15;12.00;;;3.60;99.90;;;;;;8360561;28;20482;-73
2021/01/18 13:08:29;;;;;;;6.88;3.60;;;3.70;99.90;;;;;;8358898;28;20079;-73
2021/01/18 13:12:30;;;;;;;8.60;4.97;;;3.50;99.90;;;;;;8355923;28;20499;-72
2021/01/18 13:16:31;;;;;;;12.20;7.28;;;3.60;99.90;;;;;;8360887;28;20033;-73
2021/01/18 13:20:32;;;;;;;10.00;6.40;;;3.60;99.90;;;;;;8360772;28;20029;-72
2021/01/18 13:24:32;;;;;;;8.48;5.72;;;3.70;99.90;;;;;;8359327;28;20047;-72
2021/01/18 13:28:33;;;;;;;6.40;4.03;;;3.80;99.90;;;;;;8360532;28;20048;-72
2021/01/18 13:32:33;;;;;;;9.10;4.45;;;3.80;99.90;;;;;;8359908;28;20036;-73
2021/01/18 13:36:34;;;;;;;9.20;5.13;;;3.40;99.90;;;;;;8359136;28;20037;-72
2021/01/18 13:40:35;;;;;;;9.32;5.40;;;3.10;99.90;;;;;;8358679;28;20029;-72
2021/01/18 13:44:36;;;;;;;10.07;5.90;;;3.10;99.90;;;;;;8337135;28;20025;-72
2021/01/18 13:48:38;;;;;;;7.85;4.40;;;3.00;99.90;;;;;;8359963;28;20025;-72
2021/01/18 13:52:39;;;;;;;8.82;5.10;;;2.70;99.90;;;;;;8358453;28;20096;-72
2021/01/18 13:56:39;;;;;;;9.73;5.75;;;2.70;99.90;;;;;;8358738;28;20039;-71
2021/01/18 14:00:40;;;;;;;6.07;3.50;;;2.60;99.90;;;;;;8357627;28;20028;-72
2021/01/18 14:04:40;;;;;;;8.98;5.13;;;2.60;99.90;;;;;;8353778;28;20070;-71
2021/01/18 14:08:41;;;;;;;8.55;4.80;;;2.60;99.90;;;;;;8358489;28;20052;-72
2021/01/18 14:12:46;;;;;;;8.50;4.85;;;2.60;99.90;;;;;;8357874;28;20033;-72
2021/01/18 14:16:50;;;;;;;5.97;3.33;;;2.50;99.90;;;;;;8353289;28;20060;-72
2021/01/18 14:20:50;;;;;;;6.38;3.00;;;2.50;99.90;;;;;;8358195;28;20021;-72
2021/01/18 14:24:51;;;;;;;9.98;4.97;;;2.40;99.90;;;;;;8355352;28;20013;-71
2021/01/18 14:28:52;;;;;;;8.18;5.07;;;2.40;99.90;;;;;;8357628;28;20073;-72
2021/01/18 14:32:52;;;;;;;4.85;2.45;;;2.40;99.90;;;;;;8358083;28;20027;-72
2021/01/18 14:36:53;;;;;;;6.47;3.75;;;2.20;99.90;;;;;;8357151;28;20550;-71
2021/01/18 14:40:53;;;;;;;7.97;4.35;;;2.10;99.90;;;;;;8356521;28;20024;-71
2021/01/18 14:44:54;;;;;;;8.57;5.13;;;2.10;99.90;;;;;;8357001;28;20104;-73
2021/01/18 14:48:55;;;;;;;8.43;5.38;;;2.00;99.90;;;;;;8354826;28;20097;-72
2021/01/18 14:52:56;;;;;;;11.07;5.88;;;2.00;99.90;;;;;;8353607;28;20067;-73
2021/01/18 14:56:56;;;;;;;11.00;5.57;;;2.00;99.90;;;;;;8355658;28;20021;-72
2021/01/18 15:00:57;;;;;;;9.93;5.30;;;2.00;99.90;;;;;;8354980;28;20032;-71
2021/01/18 15:05:00;;;;;;;6.07;3.03;;;1.90;99.90;;;;;;8354682;28;20438;-73
2021/01/18 15:09:06;;;;;;;8.65;5.10;;;1.80;99.90;;;;;;8357749;28;20021;-74
2021/01/18 15:13:07;;;;;;;10.15;5.30;;;1.90;99.90;;;;;;8339987;28;20060;-73
2021/01/18 15:17:07;;;;;;;9.82;4.93;;;2.00;99.90;;;;;;8345285;28;20025;-72
2021/01/18 15:21:08;;;;;;;10.68;7.07;;;2.00;99.90;;;;;;8356151;28;20017;-72
2021/01/18 15:25:09;;;;;;;7.68;4.68;;;2.00;99.90;;;;;;8364194;28;20032;-72
2021/01/18 15:29:10;;;;;;;11.57;6.45;;;1.90;99.90;;;;;;8354567;28;20040;-73
2021/01/18 15:33:10;;;;;;;14.20;8.23;;;1.80;99.90;;;;;;8350932;28;20048;-72
2021/01/18 15:37:11;;;;;;;10.07;5.68;;;1.80;99.90;;;;;;8354308;28;20039;-73
2021/01/18 15:41:22;;;;;;;7.88;3.90;;;1.80;99.90;;;;;;8357734;28;20131;-72
2021/01/18 15:45:27;;;;;;;7.75;3.95;;;1.70;99.90;;;;;;8354049;28;20025;-77
2021/01/18 15:49:27;;;;;;;5.05;3.10;;;1.70;99.90;;;;;;8355167;28;20029;-74
2021/01/18 15:53:40;;;;;;;11.98;5.68;;;1.50;99.90;;;;;;8357134;28;20029;-74
2021/01/18 15:57:41;;;;;;;15.52;6.03;;;1.50;99.90;;;;;;8355542;28;20395;-73
2021/01/18 16:01:42;;;;;;;11.18;6.30;;;1.50;99.90;;;;;;8357375;28;20104;-77
2021/01/18 16:05:42;;;;;;;9.10;4.80;;;1.50;99.90;;;;;;8359218;28;20108;-76
2021/01/18 16:09:43;;;;;;;9.02;4.25;;;1.40;99.90;;;;;;8361381;28;20111;-73
2021/01/18 16:13:44;;;;;;;9.52;5.68;;;1.50;99.90;;;;;;8364978;28;20029;-70
2021/01/18 16:17:44;;;;;;;9.57;5.15;;;1.50;99.90;;;;;;8357307;28;20040;-72
2021/01/18 16:21:45;;;;;;;7.65;5.07;;;1.50;99.90;;;;;;8347937;28;20032;-71
2021/01/18 16:25:45;;;;;;;10.07;5.10;;;1.40;99.90;;;;;;8359731;28;20112;-70
2021/01/18 16:29:46;;;;;;;9.20;5.20;;;1.40;99.90;;;;;;8354270;28;20024;-69
2021/01/18 16:33:48;;;;;;;10.00;5.32;;;1.40;99.90;;;;;;8375189;22;20040;-68
2021/01/18 16:37:48;;;;;;;9.38;5.90;;;1.40;99.90;;;;;;8341068;28;20048;-69
2021/01/18 16:41:49;;;;;;;9.40;5.20;;;1.50;99.90;;;;;;8336242;28;20794;-67
2021/01/18 16:45:49;;;;;;;11.20;6.40;;;1.50;99.90;;;;;;8323856;28;20080;-68
2021/01/18 16:49:50;;;;;;;6.70;3.75;;;1.40;99.90;;;;;;8309917;28;20436;-67
2021/01/18 16:53:51;;;;;;;7.78;5.38;;;1.60;99.90;;;;;;8325060;28;20033;-68
2021/01/18 16:57:51;;;;;;;7.13;3.97;;;1.40;99.90;;;;;;8297126;28;20053;-68
2021/01/18 17:02:02;;;;;;;16.20;8.07;;;1.50;99.90;;;;;;8320024;28;20037;-68
2021/01/18 17:06:08;;;;;;;9.15;4.88;;;1.40;99.90;;;;;;8315801;28;20018;-68
2021/01/18 17:10:11;;;;;;;15.85;11.38;;;1.40;99.90;;;;;;8310035;28;20079;-68
2021/01/18 17:14:11;;;;;;;9.57;3.92;;;1.30;99.90;;;;;;8307362;28;20080;-68
2021/01/18 17:18:12;;;;;;;9.82;6.35;;;1.30;99.90;;;;;;8320783;28;20025;-68
2021/01/18 17:22:14;;;;;;;11.18;5.10;;;1.30;99.90;;;;;;8324960;28;20419;-68
2021/01/18 17:26:26;;;;;;;8.52;5.20;;;1.30;99.90;;;;;;8325852;28;20127;-68
2021/01/18 17:30:26;;;;;;;11.50;7.10;;;1.30;99.90;;;;;;8324405;28;20036;-68
2021/01/18 17:34:27;;;;;;;34.58;15.73;;;1.30;99.90;;;;;;8322683;28;20033;-68
2021/01/18 17:38:28;;;;;;;9.90;5.18;;;1.20;99.90;;;;;;8315443;28;20060;-68
2021/01/18 17:42:28;;;;;;;11.82;6.30;;;1.40;99.90;;;;;;8318321;28;20052;-68
2021/01/18 17:46:33;;;;;;;11.00;6.15;;;1.20;99.90;;;;;;8316856;28;20128;-68
2021/01/18 17:50:34;;;;;;;13.95;7.05;;;1.10;99.90;;;;;;8319018;28;20053;-68
2021/01/18 17:54:34;;;;;;;17.90;8.77;;;1.10;99.90;;;;;;8315872;28;20083;-68
2021/01/18 17:58:35;;;;;;;30.65;12.02;;;1.00;99.90;;;;;;8308519;28;20519;-69
2021/01/18 18:02:35;;;;;;;37.97;13.82;;;0.80;99.90;;;;;;8309950;28;20143;-66
2021/01/18 18:06:36;;;;;;;86.35;32.78;;;0.70;99.90;;;;;;8306671;28;20025;-67
2021/01/18 18:10:37;;;;;;;43.53;18.10;;;0.50;99.90;;;;;;8311623;28;20029;-66
2021/01/18 18:14:38;;;;;;;36.20;14.25;;;0.50;99.90;;;;;;8309953;28;20026;-66
2021/01/18 18:18:38;;;;;;;78.95;28.88;;;0.60;99.90;;;;;;8309124;28;20046;-64
2021/01/18 18:22:39;;;;;;;33.33;12.10;;;0.60;99.90;;;;;;8308071;28;20083;-66
2021/01/18 18:26:41;;;;;;;41.38;16.55;;;0.60;99.90;;;;;;8313778;28;20440;-66
2021/01/18 18:30:42;;;;;;;22.42;9.60;;;0.40;99.90;;;;;;8317996;28;20473;-66
2021/01/18 18:34:42;;;;;;;13.93;8.10;;;0.50;99.90;;;;;;8312839;28;20044;-66
2021/01/18 18:38:43;;;;;;;27.35;10.38;;;0.40;99.90;;;;;;8322088;28;20083;-66
2021/01/18 18:42:48;;;;;;;18.27;9.02;;;0.40;99.90;;;;;;8312983;28;20053;-65
2021/01/18 18:46:50;;;;;;;33.70;16.33;;;0.40;99.90;;;;;;8315622;28;20416;-68
2021/01/18 18:50:50;;;;;;;54.85;23.50;;;0.40;99.90;;;;;;8318703;28;20109;-68
2021/01/18 18:54:54;;;;;;;54.08;24.25;;;0.40;99.90;;;;;;8316630;28;20033;-68
2021/01/18 18:58:55;;;;;;;39.83;19.13;;;0.40;99.90;;;;;;8320247;28;20049;-68
2021/01/18 19:02:55;;;;;;;35.92;16.92;;;0.30;99.90;;;;;;8320607;28;20450;-68
2021/01/18 19:06:56;;;;;;;16.67;9.90;;;0.20;99.90;;;;;;8319390;28;20013;-68
2021/01/18 19:10:56;;;;;;;15.43;8.30;;;0.10;99.90;;;;;;8319149;28;20029;-68
2021/01/18 19:14:57;;;;;;;13.05;7.85;;;0.00;99.90;;;;;;8316478;28;20029;-68
2021/01/18 19:18:58;;;;;;;16.92;8.35;;;-0.10;99.90;;;;;;8319883;28;20033;-68
2021/01/18 19:22:59;;;;;;;10.55;6.38;;;-0.40;99.90;;;;;;8316717;28;20029;-68
2021/01/18 19:27:00;;;;;;;14.02;7.10;;;-0.40;99.90;;;;;;8318457;28;20033;-68
2021/01/18 19:31:01;;;;;;;9.48;5.88;;;-0.20;99.90;;;;;;8317966;28;20544;-69
2021/01/18 19:35:03;;;;;;;11.60;6.63;;;0.00;99.90;;;;;;8319023;28;20029;-68
2021/01/18 19:39:08;;;;;;;8.65;5.00;;;0.10;99.90;;;;;;8319275;28;20033;-68
2021/01/18 19:43:10;;;;;;;13.93;5.82;;;0.20;99.90;;;;;;8318821;28;20018;-68
2021/01/18 19:47:10;;;;;;;10.13;6.30;;;0.20;99.90;;;;;;8315878;28;20038;-68
2021/01/18 19:51:11;;;;;;;9.20;5.72;;;0.20;99.90;;;;;;8317914;28;20514;-68
2021/01/18 19:55:12;;;;;;;9.13;4.78;;;0.30;99.90;;;;;;8309473;28;20075;-68
2021/01/18 19:59:13;;;;;;;12.10;5.25;;;0.30;99.90;;;;;;8304194;28;20053;-69
2021/01/18 20:03:13;;;;;;;11.88;5.80;;;0.30;99.90;;;;;;8305390;28;20040;-69
2021/01/18 20:07:15;;;;;;;12.40;6.22;;;0.30;99.90;;;;;;8310257;28;20080;-68
2021/01/18 20:11:15;;;;;;;12.00;5.82;;;0.30;99.90;;;;;;8309919;28;20022;-69
2021/01/18 20:15:17;;;;;;;9.00;5.47;;;0.30;99.90;;;;;;8308205;28;20022;-68
2021/01/18 20:19:17;;;;;;;12.88;5.22;;;0.20;99.90;;;;;;8307556;28;20060;-69
2021/01/18 20:23:18;;;;;;;10.05;4.80;;;0.20;99.90;;;;;;8319142;28;20041;-68
2021/01/18 20:27:19;;;;;;;12.80;6.57;;;0.30;99.90;;;;;;8326101;28;20102;-68
2021/01/18 20:31:20;;;;;;;8.43;3.08;;;0.20;99.90;;;;;;8321645;28;20029;-68
2021/01/18 20:35:21;;;;;;;5.35;3.65;;;0.30;99.90;;;;;;8322721;28;20129;-68
2021/01/18 20:39:21;;;;;;;14.82;7.15;;;0.20;99.90;;;;;;8322105;28;20052;-68
2021/01/18 20:43:22;;;;;;;66.65;24.40;;;0.20;99.90;;;;;;8306283;28;20029;-68
2021/01/18 20:47:23;;;;;;;48.58;16.10;;;0.30;99.90;;;;;;8304307;28;20168;-68
2021/01/18 20:51:23;;;;;;;12.48;5.93;;;0.30;99.90;;;;;;8307588;28;20087;-68
2021/01/18 20:55:24;;;;;;;7.47;4.13;;;0.20;99.90;;;;;;8308481;28;20030;-68
2021/01/18 20:59:24;;;;;;;10.38;5.55;;;0.20;99.90;;;;;;8304490;28;20062;-68
2021/01/18 21:03:25;;;;;;;17.73;7.78;;;0.10;99.90;;;;;;8296989;28;20037;-68
2021/01/18 21:07:26;;;;;;;6.53;3.90;;;0.00;99.90;;;;;;8300562;28;20038;-69
2021/01/18 21:11:28;;;;;;;10.77;5.28;;;0.10;99.90;;;;;;8293949;28;20393;-69